Westford, MA (01886)

9:02 PM EDT on August 24, 2016 (GMT -0400)
Boston Road | | Change Station

Elev 344 ft 42.57 °N, 71.44 °W | Updated 2 seconds ago

Clear
Clear
74.3 °F
Feels Like 76 °F
N
0.0
Wind Variable Wind from NNW
Gusts 0.0 mph

Today
High -- | Low -- °F
--% Chance of Precip.
Yesterday
High -- | Low -- °F
Precip. -- in
Pressure 30.18 in
Visibility 10.0 miles
Clouds Clear
Heat Index 76 °F
Dew Point 64 °F
Humidity 69%
Rainfall 0.00 in
Snow Depth Not available.
6:02 AM 7:32 PM
Waning Gibbous, 51% visible
METAR KBED 250056Z 21007KT 10SM CLR 24/14 A3015 RMK AO2 SLP219 T02390144
Pressure 30.18 in
Visibility 10.0 miles
Clouds Clear
Heat Index 76 °F
Dew Point 64 °F
Humidity 69%
Rainfall 0.00 in
Snow Depth Not available.
6:02 AM 7:32 PM
Waning Gibbous, 51% visible
METAR KBED 250056Z 21007KT 10SM CLR 24/14 A3015 RMK AO2 SLP219 T02390144

10-Day Weather Forecast

Almanac

Astronomy

Aug. 24, 2016 Rise Set
Actual Time
Civil Twilight
Nautical Twilight
Astronomical Twilight
Moon
Length of Visible Light
Length of Day
Tomorrow will be .
, % of the Moon is Illuminated

Today's Extremes

State Highs State Lows

Community

WunderPhotos

Upload Photos

1,934,757 photos uploaded!

WunderBlog® & News

Nearby

Air Quality

  Air Quality AQ Index Pollutant
Not available.

Snow Depth

Station Depth Elevation

Earthquake Activity

City Distance Mag. Time & Date
Minimum magnitude displayed is 2.5.

Coastal Water Temperatures

Place Temperature

Stations

Nearby Weather Stations

Station Location Temp. Windchill Dew Point Humidity Wind Precip. Elev Updated Type
                   

Watches & Warnings

There are currently no watches in effect.